createdAt,value
2023-02-27T00:00:57.521Z,156504.94
2023-02-27T00:03:29.701Z,156491.69
2023-02-27T00:05:57.317Z,156504.94
2023-02-27T00:08:25.036Z,156507.56
2023-02-27T00:10:52.381Z,156502.25
2023-02-27T00:13:19.833Z,156479.75
2023-02-27T00:15:48.268Z,156495.63
2023-02-27T00:18:16.186Z,156478.44
2023-02-27T00:20:43.543Z,156470.53
2023-02-27T00:23:11.249Z,156491.69
2023-02-27T00:25:38.378Z,156502.25
2023-02-27T00:28:06.017Z,156498.31
2023-02-27T00:30:33.752Z,156485.06
2023-02-27T00:33:01.532Z,156494.31
2023-02-27T00:35:28.900Z,156486.38
2023-02-27T00:37:56.477Z,156470.53
2023-02-27T00:40:25.603Z,156481.09
2023-02-27T00:42:53.838Z,156475.81
2023-02-27T00:45:21.370Z,156467.84
2023-02-27T00:47:48.942Z,156471.84
2023-02-27T00:50:16.620Z,156455.97
2023-02-27T00:52:44.509Z,156445.34
2023-02-27T00:55:12.402Z,156434.78
2023-02-27T00:57:40.604Z,156432.09
2023-02-27T01:00:11.511Z,156429.47
2023-02-27T01:02:39.323Z,156413.59
2023-02-27T01:05:08.353Z,156432.09
2023-02-27T01:07:37.374Z,156434.78
2023-02-27T01:10:05.913Z,156445.34
2023-02-27T01:12:33.421Z,156444.03
2023-02-27T01:15:00.863Z,156445.34
2023-02-27T01:17:29.063Z,156448.03
2023-02-27T01:19:57.008Z,156437.41
2023-02-27T01:22:24.801Z,156418.88
2023-02-27T01:24:52.398Z,156433.41
2023-02-27T01:27:19.939Z,156432.09
2023-02-27T01:29:47.336Z,156446.66
2023-02-27T01:32:15.035Z,156441.41
2023-02-27T01:34:43.396Z,156430.78
2023-02-27T01:37:11.101Z,156424.16
2023-02-27T01:39:38.527Z,156412.25
2023-02-27T01:42:18.841Z,156405.63
2023-02-27T01:45:19.151Z,156407.00
2023-02-27T01:47:50.802Z,156397.69
2023-02-27T01:50:19.059Z,156391.06
2023-02-27T01:52:51.945Z,156383.13
2023-02-27T01:55:20.427Z,156392.44
2023-02-27T01:57:49.105Z,156404.31
2023-02-27T02:00:17.006Z,156395.06
2023-02-27T02:03:10.320Z,156391.06
2023-02-27T02:05:38.067Z,156405.63
2023-02-27T02:08:09.360Z,156393.75
2023-02-27T02:10:36.645Z,156387.13
2023-02-27T02:13:05.072Z,156397.69
2023-02-27T02:15:37.145Z,156375.22
2023-02-27T02:18:16.899Z,156388.44
2023-02-27T02:20:50.294Z,156403.00
2023-02-27T02:23:55.893Z,156391.06
2023-02-27T02:27:01.816Z,156403.00
2023-02-27T02:29:54.528Z,156392.44
2023-02-27T02:32:39.039Z,156388.44
2023-02-27T02:35:06.605Z,156373.88
2023-02-27T02:38:04.728Z,156381.81
2023-02-27T02:40:58.560Z,156364.66
2023-02-27T02:43:40.456Z,156364.66
2023-02-27T02:46:22.439Z,156358.03
2023-02-27T02:49:02.388Z,156359.34
2023-02-27T02:51:44.782Z,156354.03
2023-02-27T02:54:52.471Z,156327.56
2023-02-27T02:57:38.463Z,156330.25
2023-02-27T03:00:15.145Z,156310.38
2023-02-27T03:02:49.537Z,156324.94
2023-02-27T03:05:25.228Z,156299.78
2023-02-27T03:08:04.330Z,156295.84
2023-02-27T03:10:36.438Z,156297.16
2023-02-27T03:13:18.426Z,156290.53
2023-02-27T03:15:49.554Z,156289.22
2023-02-27T03:18:21.929Z,156261.44
2023-02-27T03:20:56.025Z,156275.97
2023-02-27T03:23:27.505Z,156282.59
2023-02-27T03:25:58.152Z,156287.91
2023-02-27T03:28:33.083Z,156298.47
2023-02-27T03:31:10.172Z,156314.31
2023-02-27T03:33:54.315Z,156314.31
2023-02-27T03:36:27.724Z,156315.69
2023-02-27T03:39:02.661Z,156317.00
2023-02-27T03:41:48.656Z,156326.25
2023-02-27T03:44:46.094Z,156309.06
2023-02-27T03:47:13.727Z,156309.06
2023-02-27T03:49:41.635Z,156311.69
2023-02-27T03:52:09.292Z,156298.47
2023-02-27T03:54:40.570Z,156289.22
2023-02-27T03:57:09.050Z,156281.28
2023-02-27T03:59:38.170Z,156277.28
2023-02-27T04:02:05.820Z,156272.00
2023-02-27T04:04:35.878Z,156269.38
2023-02-27T04:07:46.912Z,156275.97
2023-02-27T04:10:19.722Z,156289.22
2023-02-27T04:13:11.764Z,156283.91
2023-02-27T04:16:10.269Z,156306.41
2023-02-27T04:18:49.879Z,156318.31
2023-02-27T04:21:17.540Z,156311.69
2023-02-27T04:24:12.345Z,156311.69
2023-02-27T04:26:46.041Z,156311.69
2023-02-27T04:29:24.882Z,156313.00
2023-02-27T04:32:01.534Z,156330.25
2023-02-27T04:34:40.812Z,156339.47
2023-02-27T04:37:28.506Z,156351.41
2023-02-27T04:40:06.520Z,156339.47
2023-02-27T04:42:39.327Z,156352.72
2023-02-27T04:45:09.917Z,156350.09
2023-02-27T04:47:43.557Z,156344.78
2023-02-27T04:50:15.496Z,156346.09
2023-02-27T04:52:50.752Z,156339.47
2023-02-27T04:55:22.697Z,156339.47
2023-02-27T04:57:55.492Z,156332.88
2023-02-27T05:00:24.361Z,156336.84
2023-02-27T05:02:56.326Z,156328.88
2023-02-27T05:05:27.811Z,156313.00
2023-02-27T05:08:06.257Z,156303.75
2023-02-27T05:10:47.530Z,156301.09
2023-02-27T05:13:18.637Z,156298.47
2023-02-27T05:15:53.146Z,156269.38
2023-02-27T05:18:22.232Z,156265.38
2023-02-27T05:20:53.988Z,156254.81
2023-02-27T05:23:39.149Z,156264.06
2023-02-27T05:26:14.810Z,156266.72
2023-02-27T05:29:03.558Z,156240.28
2023-02-27T05:31:46.492Z,156249.50
2023-02-27T05:34:27.712Z,156237.59
2023-02-27T05:37:02.399Z,156253.50
2023-02-27T05:39:31.990Z,156245.56
2023-02-27T05:42:02.636Z,156264.06
2023-02-27T05:44:33.764Z,156265.38
2023-02-27T05:47:06.164Z,156269.38
2023-02-27T05:49:43.945Z,156269.38
2023-02-27T05:52:13.490Z,156273.34
2023-02-27T05:55:03.617Z,156265.38
2023-02-27T05:57:36.358Z,156264.06
2023-02-27T06:00:14.503Z,156262.75
2023-02-27T06:02:43.218Z,156265.38
2023-02-27T06:05:16.729Z,156248.19
2023-02-27T06:07:44.116Z,156242.91
2023-02-27T06:10:16.615Z,156250.81
2023-02-27T06:12:44.344Z,156241.59
2023-02-27T06:15:13.263Z,156238.97
2023-02-27T06:17:40.998Z,156240.28
2023-02-27T06:20:09.646Z,156244.22
2023-02-27T06:22:37.245Z,156216.44
2023-02-27T06:25:05.240Z,156254.81
2023-02-27T06:27:32.809Z,156270.69
2023-02-27T06:30:00.649Z,156282.59
2023-02-27T06:32:28.183Z,156340.81
2023-02-27T06:34:56.302Z,156377.84
2023-02-27T06:37:23.819Z,156434.78
2023-02-27T06:39:52.252Z,156455.97
2023-02-27T06:42:19.687Z,156467.84
2023-02-27T06:44:47.746Z,156515.50
2023-02-27T06:47:15.299Z,156579.06
2023-02-27T06:49:43.223Z,156610.84
2023-02-27T06:52:10.655Z,156630.72
2023-02-27T06:54:38.368Z,156645.28
2023-02-27T06:57:05.552Z,156708.88
2023-02-27T06:59:33.214Z,156687.69
2023-02-27T07:02:00.816Z,156670.44
2023-02-27T07:04:28.729Z,156674.44
2023-02-27T07:07:34.631Z,156716.81
2023-02-27T07:09:43.751Z,156702.25
2023-02-27T07:12:11.127Z,156716.81
2023-02-27T07:14:38.813Z,156772.47
2023-02-27T07:17:06.320Z,156833.44
2023-02-27T07:19:36.041Z,156877.16
2023-02-27T07:22:04.039Z,156830.75
2023-02-27T07:24:31.709Z,156776.47
2023-02-27T07:26:58.869Z,156777.78
2023-02-27T07:29:26.522Z,156784.41
2023-02-27T07:31:53.886Z,156788.34
2023-02-27T07:34:21.694Z,156772.47
2023-02-27T07:36:49.047Z,156785.72
2023-02-27T07:39:16.695Z,156837.38
2023-02-27T07:41:44.057Z,156825.47
2023-02-27T07:44:17.974Z,156793.66
2023-02-27T07:46:47.307Z,156734.00
2023-02-27T07:49:14.995Z,156736.69
2023-02-27T07:51:42.501Z,156704.88
2023-02-27T07:54:10.035Z,156702.25
2023-02-27T07:56:37.378Z,156673.13
2023-02-27T07:59:05.254Z,156621.44
2023-02-27T08:01:32.721Z,156618.78
2023-02-27T08:04:00.390Z,156654.56
2023-02-27T08:06:28.092Z,156645.28
2023-02-27T08:08:56.148Z,156654.56
2023-02-27T08:11:23.878Z,156641.31
2023-02-27T08:14:01.044Z,156655.88
2023-02-27T08:16:29.562Z,156683.69
2023-02-27T08:18:57.519Z,156665.16
2023-02-27T08:21:25.014Z,156658.53
2023-02-27T08:23:52.943Z,156682.38
2023-02-27T08:26:21.111Z,156703.56
2023-02-27T08:28:48.756Z,156647.94
2023-02-27T08:31:16.470Z,156649.25
2023-02-27T08:33:44.277Z,156691.63
2023-02-27T08:36:11.682Z,156690.31
2023-02-27T08:38:39.298Z,156714.19
2023-02-27T08:41:06.724Z,156677.06
2023-02-27T08:43:34.853Z,156642.63
2023-02-27T08:46:02.229Z,156573.78
2023-02-27T08:48:30.061Z,156609.53
2023-02-27T08:50:58.014Z,156707.56
2023-02-27T08:53:26.146Z,156674.44
2023-02-27T08:55:53.563Z,156591.00
2023-02-27T08:58:21.103Z,156585.69
2023-02-27T09:00:48.551Z,156592.31
2023-02-27T09:03:16.226Z,156579.06
2023-02-27T09:05:43.634Z,156542.00
2023-02-27T09:08:11.909Z,156500.94
2023-02-27T09:10:39.249Z,156479.75
2023-02-27T09:13:06.902Z,156487.72
2023-02-27T09:15:38.239Z,156489.03
2023-02-27T09:18:07.271Z,156457.28
2023-02-27T09:20:38.298Z,156428.16
2023-02-27T09:23:06.033Z,156425.47
2023-02-27T09:25:33.551Z,156445.34
2023-02-27T09:28:01.402Z,156489.03
2023-02-27T09:30:28.927Z,156489.03
2023-02-27T09:32:56.516Z,156473.16
2023-02-27T09:35:24.045Z,156479.75
2023-02-27T09:37:51.656Z,156518.19
2023-02-27T09:40:42.440Z,156474.47
2023-02-27T09:43:16.059Z,156479.75
2023-02-27T09:45:44.793Z,156487.72
2023-02-27T09:48:20.050Z,156502.25
2023-02-27T09:50:52.929Z,156540.69
2023-02-27T09:53:32.747Z,156548.63
2023-02-27T09:56:19.610Z,156498.31
2023-02-27T09:59:24.892Z,156457.28
2023-02-27T10:02:18.326Z,156470.53
2023-02-27T10:05:24.206Z,156483.75
2023-02-27T10:08:02.232Z,156512.88
2023-02-27T10:10:48.857Z,156557.88
2023-02-27T10:13:34.278Z,156552.56
2023-02-27T10:16:03.147Z,156549.94
2023-02-27T10:18:47.578Z,156618.78
2023-02-27T10:21:21.491Z,156581.72
2023-02-27T10:24:03.246Z,156567.16
2023-02-27T10:26:36.502Z,156577.75
2023-02-27T10:29:15.157Z,156613.50
2023-02-27T10:31:44.672Z,156585.69
2023-02-27T10:34:16.618Z,156587.00
2023-02-27T10:36:46.252Z,156596.28
2023-02-27T10:39:17.380Z,156563.19
2023-02-27T10:41:45.936Z,156516.81
2023-02-27T10:44:18.825Z,156530.06
2023-02-27T10:46:46.740Z,156600.25
2023-02-27T10:49:19.482Z,156577.75
2023-02-27T10:52:06.050Z,156600.25
2023-02-27T10:54:33.635Z,156564.50
2023-02-27T10:57:02.676Z,156579.06
2023-02-27T10:59:36.755Z,156548.63
2023-02-27T11:02:22.703Z,156524.81
2023-02-27T11:04:54.274Z,156526.13
2023-02-27T11:07:31.533Z,156526.13
2023-02-27T11:10:17.106Z,156540.69
2023-02-27T11:13:02.363Z,156543.31
2023-02-27T11:15:34.635Z,156553.94
2023-02-27T11:18:21.090Z,156555.25
2023-02-27T11:20:50.958Z,156539.38
2023-02-27T11:23:21.475Z,156519.50
2023-02-27T11:25:48.915Z,156520.81
2023-02-27T11:28:30.521Z,156523.44
2023-02-27T11:31:17.945Z,156527.44
2023-02-27T11:33:53.966Z,156549.94
2023-02-27T11:36:23.874Z,156559.19
2023-02-27T11:38:56.217Z,156567.16
2023-02-27T11:41:31.180Z,156593.63
2023-02-27T11:43:59.716Z,156620.13
2023-02-27T11:46:47.245Z,156621.44
2023-02-27T11:49:44.234Z,156532.75
2023-02-27T11:52:23.191Z,156543.31
2023-02-27T11:54:59.179Z,156524.81
2023-02-27T11:57:32.761Z,156532.75
2023-02-27T12:00:21.760Z,156552.56
2023-02-27T12:03:26.751Z,156565.81
2023-02-27T12:05:57.314Z,156546.00
2023-02-27T12:08:51.978Z,156511.56
2023-02-27T12:11:41.677Z,156516.81
2023-02-27T12:14:08.982Z,156526.13
2023-02-27T12:16:47.152Z,156506.25
2023-02-27T12:19:37.789Z,156539.38
2023-02-27T12:22:21.978Z,156544.63
2023-02-27T12:25:02.547Z,156576.44
2023-02-27T12:27:51.320Z,156542.00
2023-02-27T12:30:22.706Z,156572.44
2023-02-27T12:33:12.727Z,156556.56
2023-02-27T12:35:43.374Z,156569.81
2023-02-27T12:38:14.894Z,156569.81
2023-02-27T12:41:14.618Z,156510.19
2023-02-27T12:43:56.370Z,156482.41
2023-02-27T12:46:44.142Z,156503.56
2023-02-27T12:49:16.964Z,156502.25
2023-02-27T12:51:56.077Z,156504.94
2023-02-27T12:54:29.384Z,156519.50
2023-02-27T12:57:02.304Z,156518.19
2023-02-27T13:00:01.114Z,156535.38
2023-02-27T13:02:43.770Z,156565.81
2023-02-27T13:05:33.539Z,156576.44
2023-02-27T13:08:15.271Z,156555.25
2023-02-27T13:11:06.940Z,156549.94
2023-02-27T13:13:45.128Z,156518.19
2023-02-27T13:16:14.568Z,156523.44
2023-02-27T13:19:15.586Z,156494.31
2023-02-27T13:21:54.283Z,156487.72
2023-02-27T13:24:34.799Z,156560.56
2023-02-27T13:27:08.014Z,156524.81
2023-02-27T13:29:47.774Z,156546.00
2023-02-27T13:32:41.270Z,156555.25
2023-02-27T13:35:25.851Z,156547.31
2023-02-27T13:38:07.416Z,156539.38
2023-02-27T13:40:34.551Z,156576.44
2023-02-27T13:43:51.503Z,156542.00
2023-02-27T13:46:28.770Z,156556.56
2023-02-27T13:49:06.074Z,156553.94
2023-02-27T13:51:36.828Z,156534.06
2023-02-27T13:54:17.000Z,156524.81
2023-02-27T13:56:50.830Z,156528.75
2023-02-27T13:59:27.399Z,156511.56
2023-02-27T14:01:57.449Z,156508.88
2023-02-27T14:04:27.634Z,156503.56
2023-02-27T14:07:04.225Z,156483.75
2023-02-27T14:09:37.299Z,156478.44
2023-02-27T14:12:07.002Z,156481.09
2023-02-27T14:14:44.389Z,156491.69
2023-02-27T14:17:33.706Z,156497.00
2023-02-27T14:20:05.561Z,156499.63
2023-02-27T14:22:55.819Z,156519.50
2023-02-27T14:25:33.577Z,156535.38
2023-02-27T14:28:02.660Z,156591.00
2023-02-27T14:30:36.915Z,156606.88
2023-02-27T14:33:39.053Z,156587.00
2023-02-27T14:36:26.290Z,156548.63
2023-02-27T14:38:57.876Z,156531.38
2023-02-27T14:41:39.666Z,156560.56
2023-02-27T14:44:18.725Z,156577.75
2023-02-27T14:46:46.641Z,156546.00
2023-02-27T14:49:29.599Z,156535.38
2023-02-27T14:51:57.616Z,156520.81
2023-02-27T14:54:26.474Z,156528.75
2023-02-27T14:56:58.083Z,156547.31
2023-02-27T14:59:26.928Z,156569.81
2023-02-27T15:01:58.996Z,156520.81
2023-02-27T15:04:29.210Z,156510.19
2023-02-27T15:07:08.595Z,156526.13
2023-02-27T15:09:43.964Z,156528.75
2023-02-27T15:12:21.109Z,156530.06
2023-02-27T15:14:52.986Z,156520.81
2023-02-27T15:17:26.332Z,156485.06
2023-02-27T15:19:58.586Z,156469.19
2023-02-27T15:22:39.001Z,156455.97
2023-02-27T15:25:25.385Z,156442.72
2023-02-27T15:27:55.266Z,156440.03
2023-02-27T15:30:22.661Z,156446.66
2023-02-27T15:32:50.383Z,156459.91
2023-02-27T15:35:22.363Z,156465.22
2023-02-27T15:38:02.530Z,156478.44
2023-02-27T15:40:31.947Z,156477.13
2023-02-27T15:43:01.093Z,156469.19
2023-02-27T15:45:34.688Z,156495.63
2023-02-27T15:48:03.878Z,156474.47
2023-02-27T15:50:37.699Z,156433.41
2023-02-27T15:53:10.970Z,156448.03
2023-02-27T15:55:41.175Z,156466.53
2023-02-27T15:58:34.532Z,156442.72
2023-02-27T16:01:09.317Z,156466.53
2023-02-27T16:03:44.207Z,156465.22
2023-02-27T16:06:15.968Z,156445.34
2023-02-27T16:08:52.679Z,156445.34
2023-02-27T16:11:34.870Z,156462.59
2023-02-27T16:14:04.266Z,156441.41
2023-02-27T16:16:37.614Z,156467.84
2023-02-27T16:19:16.306Z,156500.94
2023-02-27T16:22:15.768Z,156498.31
2023-02-27T16:24:44.299Z,156498.31
2023-02-27T16:27:26.489Z,156504.94
2023-02-27T16:29:56.695Z,156454.59
2023-02-27T16:32:29.227Z,156409.63
2023-02-27T16:35:01.446Z,156401.69
2023-02-27T16:37:39.770Z,156413.59
2023-02-27T16:40:20.354Z,156418.88
2023-02-27T16:42:47.785Z,156444.03
2023-02-27T16:45:20.806Z,156462.59
2023-02-27T16:47:56.456Z,156446.66
2023-02-27T16:50:25.278Z,156453.28
2023-02-27T16:52:52.829Z,156426.81
2023-02-27T16:55:20.933Z,156440.03
2023-02-27T16:57:48.181Z,156420.22
2023-02-27T17:00:18.086Z,156391.06
2023-02-27T17:02:46.916Z,156352.72
2023-02-27T17:05:15.793Z,156309.06
2023-02-27T17:07:43.854Z,156287.91
2023-02-27T17:10:22.434Z,156301.09
2023-02-27T17:12:49.719Z,156319.63
2023-02-27T17:15:17.796Z,156332.88
2023-02-27T17:17:45.725Z,156350.09
2023-02-27T17:20:15.004Z,156355.34
2023-02-27T17:22:44.111Z,156354.03
2023-02-27T17:25:12.972Z,156367.28
2023-02-27T17:27:42.562Z,156354.03
2023-02-27T17:30:11.200Z,156328.88
2023-02-27T17:32:38.638Z,156348.72
2023-02-27T17:35:06.986Z,156351.41
2023-02-27T17:37:35.926Z,156334.19
2023-02-27T17:40:05.749Z,156324.94
2023-02-27T17:42:36.264Z,156319.63
2023-02-27T17:45:05.881Z,156317.00
2023-02-27T17:47:34.190Z,156328.88
2023-02-27T17:50:02.173Z,156335.50
2023-02-27T17:52:29.448Z,156356.66
2023-02-27T17:54:57.202Z,156361.97
2023-02-27T17:57:24.336Z,156355.34
2023-02-27T17:59:52.053Z,156361.97
2023-02-27T18:02:19.486Z,156368.59
2023-02-27T18:04:47.602Z,156380.50
2023-02-27T18:07:15.010Z,156387.13
2023-02-27T18:09:45.913Z,156367.28
2023-02-27T18:12:13.516Z,156391.06
2023-02-27T18:14:41.222Z,156407.00
2023-02-27T18:17:12.324Z,156396.38
2023-02-27T18:19:41.989Z,156401.69
2023-02-27T18:22:10.287Z,156400.38
2023-02-27T18:24:38.475Z,156396.38
2023-02-27T18:27:05.902Z,156407.00
2023-02-27T18:29:33.762Z,156404.31
2023-02-27T18:32:01.045Z,156404.31
2023-02-27T18:34:28.682Z,156410.94
2023-02-27T18:36:58.126Z,156400.38
2023-02-27T18:39:25.876Z,156426.81
2023-02-27T18:41:53.142Z,156416.25
2023-02-27T18:44:20.873Z,156401.69
2023-02-27T18:46:48.307Z,156413.59
2023-02-27T18:49:16.013Z,156426.81
2023-02-27T18:51:44.279Z,156421.53
2023-02-27T18:54:14.084Z,156417.56
2023-02-27T18:56:41.867Z,156414.91
2023-02-27T18:59:09.593Z,156410.94
2023-02-27T19:01:38.722Z,156412.25
2023-02-27T19:04:07.747Z,156404.31
2023-02-27T19:06:40.763Z,156405.63
2023-02-27T19:09:11.402Z,156408.31
2023-02-27T19:11:38.878Z,156391.06
2023-02-27T19:14:08.701Z,156397.69
2023-02-27T19:16:36.982Z,156420.22
2023-02-27T19:19:20.746Z,156418.88
2023-02-27T19:21:48.402Z,156408.31
2023-02-27T19:24:17.034Z,156410.94
2023-02-27T19:26:44.481Z,156416.25
2023-02-27T19:29:12.434Z,156407.00
2023-02-27T19:31:40.052Z,156418.88
2023-02-27T19:34:08.071Z,156395.06
2023-02-27T19:36:35.615Z,156396.38
2023-02-27T19:39:04.337Z,156400.38
2023-02-27T19:41:33.400Z,156380.50
2023-02-27T19:44:01.853Z,156381.81
2023-02-27T19:46:32.656Z,156404.31
2023-02-27T19:49:04.449Z,156396.38
2023-02-27T19:51:32.078Z,156395.06
2023-02-27T19:54:00.451Z,156391.06
2023-02-27T19:56:31.196Z,156391.06
2023-02-27T19:59:01.022Z,156377.84
2023-02-27T20:01:32.045Z,156367.28
2023-02-27T20:04:06.488Z,156339.47
2023-02-27T20:06:42.216Z,156338.16
2023-02-27T20:09:13.467Z,156331.56
2023-02-27T20:11:44.827Z,156318.31
2023-02-27T20:14:14.201Z,156303.75
2023-02-27T20:16:41.930Z,156264.06
2023-02-27T20:19:12.984Z,156250.81
2023-02-27T20:21:42.926Z,156233.66
2023-02-27T20:24:10.971Z,156238.97
2023-02-27T20:26:43.846Z,156244.22
2023-02-27T20:29:15.030Z,156221.72
2023-02-27T20:31:46.597Z,156221.72
2023-02-27T20:35:12.489Z,156224.41
2023-02-27T20:37:40.214Z,156213.81
2023-02-27T20:40:08.816Z,156232.34
2023-02-27T20:42:36.677Z,156223.03
2023-02-27T20:45:05.561Z,156200.56
2023-02-27T20:47:32.856Z,156175.44
2023-02-27T20:50:00.678Z,156170.16
2023-02-27T20:52:28.447Z,156160.88
2023-02-27T20:54:56.046Z,156159.56
2023-02-27T20:57:23.408Z,156158.25
2023-02-27T20:59:51.134Z,156156.94
2023-02-27T21:02:18.659Z,156166.19
2023-02-27T21:04:47.665Z,156199.25
2023-02-27T21:07:17.821Z,156159.56
2023-02-27T21:09:51.410Z,156142.41
2023-02-27T21:12:19.091Z,156121.25
2023-02-27T21:14:49.646Z,156089.50
2023-02-27T21:17:17.312Z,156078.94
2023-02-27T21:19:45.263Z,156076.25
2023-02-27T21:22:14.345Z,156065.72
2023-02-27T21:24:42.116Z,156041.88
2023-02-27T21:27:09.574Z,156044.56
2023-02-27T21:29:37.277Z,156022.09
2023-02-27T21:32:04.724Z,156030.03
2023-02-27T21:34:32.410Z,156045.88
2023-02-27T21:37:02.016Z,156057.78
2023-02-27T21:39:34.301Z,156097.41
2023-02-27T21:42:02.438Z,156068.34
2023-02-27T21:44:31.973Z,156044.56
2023-02-27T21:46:59.501Z,156040.56
2023-02-27T21:49:28.661Z,156048.50
2023-02-27T21:51:55.904Z,156049.81
2023-02-27T21:54:23.804Z,156041.88
2023-02-27T21:56:51.373Z,156041.88
2023-02-27T21:59:20.217Z,156032.66
2023-02-27T22:01:48.586Z,155991.66
2023-02-27T22:04:18.419Z,156022.09
2023-02-27T22:06:46.494Z,156053.78
2023-02-27T22:09:14.726Z,156033.97
2023-02-27T22:11:42.940Z,156018.09
2023-02-27T22:14:11.521Z,156023.41
2023-02-27T22:16:39.086Z,156044.56
2023-02-27T22:19:12.665Z,156071.00
2023-02-27T22:21:40.672Z,156073.63
2023-02-27T22:24:08.640Z,156061.72
2023-02-27T22:26:36.624Z,156043.25
2023-02-27T22:29:06.056Z,155970.50
2023-02-27T22:31:36.003Z,155936.16
2023-02-27T22:34:21.547Z,155905.78
2023-02-27T22:36:52.428Z,155899.16
2023-02-27T22:39:20.710Z,155896.53
2023-02-27T22:41:48.352Z,155896.53
2023-02-27T22:44:17.108Z,155901.78
2023-02-27T22:46:47.266Z,155866.13
2023-02-27T22:49:20.186Z,155847.66
2023-02-27T22:51:51.037Z,155846.28
2023-02-27T22:54:20.785Z,155839.69
2023-02-27T22:56:52.099Z,155835.75
2023-02-27T22:59:20.219Z,155883.31
2023-02-27T23:01:48.813Z,155922.94
2023-02-27T23:04:19.646Z,155907.09
2023-02-27T23:06:52.241Z,155896.53
2023-02-27T23:09:22.846Z,155905.78
2023-02-27T23:11:50.527Z,155909.72
2023-02-27T23:14:18.241Z,155893.88
2023-02-27T23:16:46.730Z,155912.38
2023-02-27T23:19:17.829Z,155909.72
2023-02-27T23:21:45.308Z,155850.28
2023-02-27T23:24:15.421Z,155866.13
2023-02-27T23:26:45.693Z,155841.03
2023-02-27T23:29:13.288Z,155826.47
2023-02-27T23:31:40.936Z,155802.72
2023-02-27T23:34:09.484Z,155801.41
2023-02-27T23:36:38.548Z,155788.19
2023-02-27T23:39:07.049Z,155773.66
2023-02-27T23:41:34.681Z,155747.22
2023-02-27T23:44:02.600Z,155745.91
2023-02-27T23:46:30.850Z,155734.03
2023-02-27T23:48:59.428Z,155726.09
2023-02-27T23:51:29.778Z,155707.59
2023-02-27T23:53:58.392Z,155704.97
2023-02-27T23:56:32.347Z,155679.88
2023-02-27T23:59:05.678Z,155670.63
